Terminal Aerodrome Forecast
Issued by NWS

Home | Current Version | Previous Version | Text Only | Print | Product List | Glossary On
Versions: 1 2 3 4 5 6 7 8 9 10 11 12 13 14 15 16
000
FTUS43 KGRR 241327 AAA
TAFAZO
TAF AMD
KAZO 241327Z 2413/2512 09004KT P6SM VCSH BKN025
     FM242100 05003KT 5SM BR VCSH OVC012
     FM250600 33005KT P6SM VCSH BKN025
     FM250900 34007KT P6SM SCT040=

USA.gov is the U.S. government's official web portal to all federal, state and local government web resources and services.